sensor_id;sensor_type;location;lat;lon;timestamp;temperature;humidity
21568;DHT22;10944;42.590;12.630;2023-05-07T00:00:16;14.70;99.90
21568;DHT22;10944;42.590;12.630;2023-05-07T00:02:44;14.60;99.90
21568;DHT22;10944;42.590;12.630;2023-05-07T00:05:10;14.60;99.90
21568;DHT22;10944;42.590;12.630;2023-05-07T00:07:36;14.60;99.90
21568;DHT22;10944;42.590;12.630;2023-05-07T00:10:03;14.50;99.90
21568;DHT22;10944;42.590;12.630;2023-05-07T00:12:29;14.50;99.90
21568;DHT22;10944;42.590;12.630;2023-05-07T00:14:57;14.50;99.90
21568;DHT22;10944;42.590;12.630;2023-05-07T00:17:23;14.60;99.90
21568;DHT22;10944;42.590;12.630;2023-05-07T00:19:49;14.60;99.90
21568;DHT22;10944;42.590;12.630;2023-05-07T00:22:14;14.60;99.90
21568;DHT22;10944;42.590;12.630;2023-05-07T00:24:40;14.60;99.90
21568;DHT22;10944;42.590;12.630;2023-05-07T00:27:06;14.60;99.90
21568;DHT22;10944;42.590;12.630;2023-05-07T00:29:32;14.60;99.90
21568;DHT22;10944;42.590;12.630;2023-05-07T00:31:58;14.50;99.90
21568;DHT22;10944;42.590;12.630;2023-05-07T00:34:23;14.50;99.90
21568;DHT22;10944;42.590;12.630;2023-05-07T00:36:49;14.50;99.90
21568;DHT22;10944;42.590;12.630;2023-05-07T00:39:15;14.50;99.90
21568;DHT22;10944;42.590;12.630;2023-05-07T00:41:41;14.60;99.90
21568;DHT22;10944;42.590;12.630;2023-05-07T00:44:06;14.60;99.90
21568;DHT22;10944;42.590;12.630;2023-05-07T00:46:32;14.60;99.90
21568;DHT22;10944;42.590;12.630;2023-05-07T00:48:59;14.80;99.90
21568;DHT22;10944;42.590;12.630;2023-05-07T00:51:25;15.00;99.90
21568;DHT22;10944;42.590;12.630;2023-05-07T00:53:53;14.90;99.90
21568;DHT22;10944;42.590;12.630;2023-05-07T00:56:22;14.80;99.90
21568;DHT22;10944;42.590;12.630;2023-05-07T00:58:49;14.70;99.90
21568;DHT22;10944;42.590;12.630;2023-05-07T01:01:15;14.60;99.90
21568;DHT22;10944;42.590;12.630;2023-05-07T01:03:42;14.50;99.90
21568;DHT22;10944;42.590;12.630;2023-05-07T01:06:09;14.40;99.90
21568;DHT22;10944;42.590;12.630;2023-05-07T01:08:35;14.30;99.90
21568;DHT22;10944;42.590;12.630;2023-05-07T01:11:02;14.20;99.90
21568;DHT22;10944;42.590;12.630;2023-05-07T01:13:29;14.10;99.90
21568;DHT22;10944;42.590;12.630;2023-05-07T01:15:55;14.10;99.90
21568;DHT22;10944;42.590;12.630;2023-05-07T01:18:21;13.90;99.90
21568;DHT22;10944;42.590;12.630;2023-05-07T01:20:47;13.90;99.90
21568;DHT22;10944;42.590;12.630;2023-05-07T01:23:13;13.90;99.90
21568;DHT22;10944;42.590;12.630;2023-05-07T01:25:39;13.90;99.90
21568;DHT22;10944;42.590;12.630;2023-05-07T01:28:05;13.90;99.90
21568;DHT22;10944;42.590;12.630;2023-05-07T01:30:32;13.90;99.90
21568;DHT22;10944;42.590;12.630;2023-05-07T01:33:11;13.90;99.90
21568;DHT22;10944;42.590;12.630;2023-05-07T01:35:41;13.90;99.90
21568;DHT22;10944;42.590;12.630;2023-05-07T01:38:08;13.90;99.90
21568;DHT22;10944;42.590;12.630;2023-05-07T01:40:34;13.70;99.90
21568;DHT22;10944;42.590;12.630;2023-05-07T01:43:01;13.70;99.90
21568;DHT22;10944;42.590;12.630;2023-05-07T01:45:28;13.60;99.90
21568;DHT22;10944;42.590;12.630;2023-05-07T01:47:56;13.50;99.90
21568;DHT22;10944;42.590;12.630;2023-05-07T01:50:23;13.50;99.90
21568;DHT22;10944;42.590;12.630;2023-05-07T01:52:50;13.40;99.90
21568;DHT22;10944;42.590;12.630;2023-05-07T01:55:16;13.40;99.90
21568;DHT22;10944;42.590;12.630;2023-05-07T01:57:42;13.40;99.90
21568;DHT22;10944;42.590;12.630;2023-05-07T02:00:08;13.30;99.90
21568;DHT22;10944;42.590;12.630;2023-05-07T02:02:35;13.30;99.90
21568;DHT22;10944;42.590;12.630;2023-05-07T02:05:01;13.30;99.90
21568;DHT22;10944;42.590;12.630;2023-05-07T02:07:27;13.20;99.90
21568;DHT22;10944;42.590;12.630;2023-05-07T02:09:53;13.30;99.90
21568;DHT22;10944;42.590;12.630;2023-05-07T02:12:21;13.30;99.90
21568;DHT22;10944;42.590;12.630;2023-05-07T02:14:46;13.30;99.90
21568;DHT22;10944;42.590;12.630;2023-05-07T02:17:12;13.30;99.90
21568;DHT22;10944;42.590;12.630;2023-05-07T02:19:38;13.30;99.90
21568;DHT22;10944;42.590;12.630;2023-05-07T02:22:04;13.30;99.90
21568;DHT22;10944;42.590;12.630;2023-05-07T02:24:29;13.20;99.90
21568;DHT22;10944;42.590;12.630;2023-05-07T02:26:55;13.20;99.90
21568;DHT22;10944;42.590;12.630;2023-05-07T02:29:21;13.30;99.90
21568;DHT22;10944;42.590;12.630;2023-05-07T02:31:47;13.40;99.90
21568;DHT22;10944;42.590;12.630;2023-05-07T02:34:19;13.40;99.90
21568;DHT22;10944;42.590;12.630;2023-05-07T02:36:45;13.30;99.90
21568;DHT22;10944;42.590;12.630;2023-05-07T02:39:12;13.20;99.90
21568;DHT22;10944;42.590;12.630;2023-05-07T02:41:37;13.10;99.90
21568;DHT22;10944;42.590;12.630;2023-05-07T02:44:04;13.00;99.90
21568;DHT22;10944;42.590;12.630;2023-05-07T02:46:29;13.00;99.90
21568;DHT22;10944;42.590;12.630;2023-05-07T02:48:55;13.10;99.90
21568;DHT22;10944;42.590;12.630;2023-05-07T02:51:22;13.00;99.90
21568;DHT22;10944;42.590;12.630;2023-05-07T02:53:48;13.10;99.90
21568;DHT22;10944;42.590;12.630;2023-05-07T02:56:14;13.10;99.90
21568;DHT22;10944;42.590;12.630;2023-05-07T02:58:40;13.10;99.90
21568;DHT22;10944;42.590;12.630;2023-05-07T03:01:07;13.00;99.90
21568;DHT22;10944;42.590;12.630;2023-05-07T03:03:33;12.90;99.90
21568;DHT22;10944;42.590;12.630;2023-05-07T03:05:58;13.00;99.90
21568;DHT22;10944;42.590;12.630;2023-05-07T03:08:24;13.00;99.90
21568;DHT22;10944;42.590;12.630;2023-05-07T03:10:50;13.10;99.90
21568;DHT22;10944;42.590;12.630;2023-05-07T03:13:16;13.20;99.90
21568;DHT22;10944;42.590;12.630;2023-05-07T03:15:42;13.20;99.90
21568;DHT22;10944;42.590;12.630;2023-05-07T03:18:08;13.20;99.90
21568;DHT22;10944;42.590;12.630;2023-05-07T03:20:34;13.10;99.90
21568;DHT22;10944;42.590;12.630;2023-05-07T03:23:00;13.20;99.90
21568;DHT22;10944;42.590;12.630;2023-05-07T03:25:25;13.10;99.90
21568;DHT22;10944;42.590;12.630;2023-05-07T03:27:51;13.10;99.90
21568;DHT22;10944;42.590;12.630;2023-05-07T03:30:17;13.10;99.90
21568;DHT22;10944;42.590;12.630;2023-05-07T03:32:43;13.10;99.90
21568;DHT22;10944;42.590;12.630;2023-05-07T03:35:08;13.00;99.90
21568;DHT22;10944;42.590;12.630;2023-05-07T03:37:34;12.90;99.90
21568;DHT22;10944;42.590;12.630;2023-05-07T03:40:00;12.90;99.90
21568;DHT22;10944;42.590;12.630;2023-05-07T03:42:26;13.00;99.90
21568;DHT22;10944;42.590;12.630;2023-05-07T03:44:51;12.90;99.90
21568;DHT22;10944;42.590;12.630;2023-05-07T03:47:17;12.80;99.90
21568;DHT22;10944;42.590;12.630;2023-05-07T03:49:43;12.90;99.90
21568;DHT22;10944;42.590;12.630;2023-05-07T03:52:08;12.90;99.90
21568;DHT22;10944;42.590;12.630;2023-05-07T03:54:34;12.80;99.90
21568;DHT22;10944;42.590;12.630;2023-05-07T03:57:00;12.80;99.90
21568;DHT22;10944;42.590;12.630;2023-05-07T03:59:25;12.80;99.90
21568;DHT22;10944;42.590;12.630;2023-05-07T04:01:51;12.80;99.90
21568;DHT22;10944;42.590;12.630;2023-05-07T04:04:17;12.70;99.90
21568;DHT22;10944;42.590;12.630;2023-05-07T04:06:43;12.80;99.90
21568;DHT22;10944;42.590;12.630;2023-05-07T04:09:08;12.80;99.90
21568;DHT22;10944;42.590;12.630;2023-05-07T04:11:35;12.80;99.90
21568;DHT22;10944;42.590;12.630;2023-05-07T04:14:01;13.00;99.90
21568;DHT22;10944;42.590;12.630;2023-05-07T04:16:27;13.10;99.90
21568;DHT22;10944;42.590;12.630;2023-05-07T04:18:52;13.40;99.90
21568;DHT22;10944;42.590;12.630;2023-05-07T04:21:20;13.50;99.90
21568;DHT22;10944;42.590;12.630;2023-05-07T04:23:47;13.50;99.90
21568;DHT22;10944;42.590;12.630;2023-05-07T04:26:12;13.60;99.90
21568;DHT22;10944;42.590;12.630;2023-05-07T04:28:39;13.50;99.90
21568;DHT22;10944;42.590;12.630;2023-05-07T04:31:05;13.50;99.90
21568;DHT22;10944;42.590;12.630;2023-05-07T04:33:32;13.60;99.90
21568;DHT22;10944;42.590;12.630;2023-05-07T04:35:58;13.50;99.90
21568;DHT22;10944;42.590;12.630;2023-05-07T04:38:29;13.40;99.90
21568;DHT22;10944;42.590;12.630;2023-05-07T04:40:55;13.40;99.90
21568;DHT22;10944;42.590;12.630;2023-05-07T04:43:21;13.40;99.90
21568;DHT22;10944;42.590;12.630;2023-05-07T04:45:47;13.40;99.90
21568;DHT22;10944;42.590;12.630;2023-05-07T04:48:14;13.40;99.90
21568;DHT22;10944;42.590;12.630;2023-05-07T04:50:40;13.40;99.90
21568;DHT22;10944;42.590;12.630;2023-05-07T04:53:06;13.50;99.90
21568;DHT22;10944;42.590;12.630;2023-05-07T04:55:32;13.50;99.90
21568;DHT22;10944;42.590;12.630;2023-05-07T04:57:58;13.60;99.90
21568;DHT22;10944;42.590;12.630;2023-05-07T05:00:23;13.80;99.90
21568;DHT22;10944;42.590;12.630;2023-05-07T05:02:50;14.00;99.90
21568;DHT22;10944;42.590;12.630;2023-05-07T05:05:16;14.20;99.90
21568;DHT22;10944;42.590;12.630;2023-05-07T05:07:42;14.50;99.90
21568;DHT22;10944;42.590;12.630;2023-05-07T05:10:07;14.70;99.90
21568;DHT22;10944;42.590;12.630;2023-05-07T05:12:33;14.90;99.90
21568;DHT22;10944;42.590;12.630;2023-05-07T05:14:59;14.80;99.90
21568;DHT22;10944;42.590;12.630;2023-05-07T05:17:24;14.90;99.90
21568;DHT22;10944;42.590;12.630;2023-05-07T05:19:50;15.20;99.90
21568;DHT22;10944;42.590;12.630;2023-05-07T05:22:16;15.20;99.90
21568;DHT22;10944;42.590;12.630;2023-05-07T05:24:42;15.30;99.90
21568;DHT22;10944;42.590;12.630;2023-05-07T05:27:07;15.50;99.90
21568;DHT22;10944;42.590;12.630;2023-05-07T05:29:33;15.50;99.90
21568;DHT22;10944;42.590;12.630;2023-05-07T05:31:59;15.40;99.90
21568;DHT22;10944;42.590;12.630;2023-05-07T05:34:25;15.50;99.90
21568;DHT22;10944;42.590;12.630;2023-05-07T05:36:50;15.50;99.90
21568;DHT22;10944;42.590;12.630;2023-05-07T05:39:16;15.60;99.90
21568;DHT22;10944;42.590;12.630;2023-05-07T05:41:42;15.70;99.90
21568;DHT22;10944;42.590;12.630;2023-05-07T05:44:08;15.90;99.90
21568;DHT22;10944;42.590;12.630;2023-05-07T05:46:33;16.10;99.90
21568;DHT22;10944;42.590;12.630;2023-05-07T05:49:00;16.10;99.90
21568;DHT22;10944;42.590;12.630;2023-05-07T05:51:25;16.10;99.90
21568;DHT22;10944;42.590;12.630;2023-05-07T05:53:51;16.20;99.90
21568;DHT22;10944;42.590;12.630;2023-05-07T05:56:17;16.30;99.90
21568;DHT22;10944;42.590;12.630;2023-05-07T05:58:43;16.30;99.90
21568;DHT22;10944;42.590;12.630;2023-05-07T06:01:09;16.40;99.90
21568;DHT22;10944;42.590;12.630;2023-05-07T06:03:35;16.50;99.90
21568;DHT22;10944;42.590;12.630;2023-05-07T06:06:01;16.60;99.90
21568;DHT22;10944;42.590;12.630;2023-05-07T06:08:29;16.70;99.90
21568;DHT22;10944;42.590;12.630;2023-05-07T06:10:56;16.60;99.90
21568;DHT22;10944;42.590;12.630;2023-05-07T06:13:22;16.70;99.90
21568;DHT22;10944;42.590;12.630;2023-05-07T06:15:49;16.70;99.90
21568;DHT22;10944;42.590;12.630;2023-05-07T06:18:15;16.90;99.90
21568;DHT22;10944;42.590;12.630;2023-05-07T06:20:40;17.00;99.90
21568;DHT22;10944;42.590;12.630;2023-05-07T06:23:06;17.10;99.90
21568;DHT22;10944;42.590;12.630;2023-05-07T06:25:32;17.10;99.90
21568;DHT22;10944;42.590;12.630;2023-05-07T06:27:57;17.20;99.90
21568;DHT22;10944;42.590;12.630;2023-05-07T06:30:23;17.20;99.90
21568;DHT22;10944;42.590;12.630;2023-05-07T06:32:49;17.40;99.90
21568;DHT22;10944;42.590;12.630;2023-05-07T06:35:15;17.50;99.90
21568;DHT22;10944;42.590;12.630;2023-05-07T06:37:41;17.50;99.90
21568;DHT22;10944;42.590;12.630;2023-05-07T06:40:08;17.60;99.90
21568;DHT22;10944;42.590;12.630;2023-05-07T06:42:35;17.80;99.90
21568;DHT22;10944;42.590;12.630;2023-05-07T06:45:01;17.90;99.90
21568;DHT22;10944;42.590;12.630;2023-05-07T06:47:28;18.00;99.90
21568;DHT22;10944;42.590;12.630;2023-05-07T06:49:53;18.30;99.90
21568;DHT22;10944;42.590;12.630;2023-05-07T06:52:19;18.40;99.90
21568;DHT22;10944;42.590;12.630;2023-05-07T06:54:45;18.60;99.90
21568;DHT22;10944;42.590;12.630;2023-05-07T06:57:11;18.80;99.90
21568;DHT22;10944;42.590;12.630;2023-05-07T06:59:36;18.70;99.90
21568;DHT22;10944;42.590;12.630;2023-05-07T07:02:02;18.70;99.90
21568;DHT22;10944;42.590;12.630;2023-05-07T07:04:28;18.70;99.90
21568;DHT22;10944;42.590;12.630;2023-05-07T07:06:54;18.80;99.90
21568;DHT22;10944;42.590;12.630;2023-05-07T07:09:20;18.80;99.90
21568;DHT22;10944;42.590;12.630;2023-05-07T07:11:46;19.10;99.90
21568;DHT22;10944;42.590;12.630;2023-05-07T07:14:11;19.20;99.90
21568;DHT22;10944;42.590;12.630;2023-05-07T07:16:37;19.10;99.90
21568;DHT22;10944;42.590;12.630;2023-05-07T07:19:03;19.10;99.90
21568;DHT22;10944;42.590;12.630;2023-05-07T07:21:28;19.00;99.90
21568;DHT22;10944;42.590;12.630;2023-05-07T07:23:55;19.00;99.90
21568;DHT22;10944;42.590;12.630;2023-05-07T07:26:21;19.20;99.90
21568;DHT22;10944;42.590;12.630;2023-05-07T07:28:46;19.20;99.90
21568;DHT22;10944;42.590;12.630;2023-05-07T07:31:12;19.30;99.90
21568;DHT22;10944;42.590;12.630;2023-05-07T07:33:38;19.40;99.90
21568;DHT22;10944;42.590;12.630;2023-05-07T07:36:05;19.60;99.90
21568;DHT22;10944;42.590;12.630;2023-05-07T07:38:32;19.60;99.90
21568;DHT22;10944;42.590;12.630;2023-05-07T07:40:57;19.70;99.90
21568;DHT22;10944;42.590;12.630;2023-05-07T07:43:23;19.70;99.90
21568;DHT22;10944;42.590;12.630;2023-05-07T07:45:49;19.60;99.90
21568;DHT22;10944;42.590;12.630;2023-05-07T07:48:15;19.60;99.90
21568;DHT22;10944;42.590;12.630;2023-05-07T07:50:40;19.70;99.90
21568;DHT22;10944;42.590;12.630;2023-05-07T07:53:06;19.80;99.90
21568;DHT22;10944;42.590;12.630;2023-05-07T07:55:32;19.90;99.90
21568;DHT22;10944;42.590;12.630;2023-05-07T07:57:58;20.10;99.90
21568;DHT22;10944;42.590;12.630;2023-05-07T08:00:23;20.10;99.90
21568;DHT22;10944;42.590;12.630;2023-05-07T08:02:49;20.20;99.90
21568;DHT22;10944;42.590;12.630;2023-05-07T08:05:15;20.30;99.90
21568;DHT22;10944;42.590;12.630;2023-05-07T08:07:41;20.40;99.90
21568;DHT22;10944;42.590;12.630;2023-05-07T08:10:07;20.40;99.90
21568;DHT22;10944;42.590;12.630;2023-05-07T08:12:32;20.50;99.90
21568;DHT22;10944;42.590;12.630;2023-05-07T08:14:58;20.50;99.90
21568;DHT22;10944;42.590;12.630;2023-05-07T08:17:24;20.60;99.90
21568;DHT22;10944;42.590;12.630;2023-05-07T08:19:50;20.80;99.90
21568;DHT22;10944;42.590;12.630;2023-05-07T08:22:16;20.90;99.90
21568;DHT22;10944;42.590;12.630;2023-05-07T08:24:43;21.00;99.90
21568;DHT22;10944;42.590;12.630;2023-05-07T08:27:10;21.00;99.90
21568;DHT22;10944;42.590;12.630;2023-05-07T08:29:35;21.00;99.90
21568;DHT22;10944;42.590;12.630;2023-05-07T08:32:01;21.20;99.90
21568;DHT22;10944;42.590;12.630;2023-05-07T08:34:27;21.30;99.90
21568;DHT22;10944;42.590;12.630;2023-05-07T08:36:53;21.40;99.80
21568;DHT22;10944;42.590;12.630;2023-05-07T08:39:19;21.40;99.90
21568;DHT22;10944;42.590;12.630;2023-05-07T08:41:45;21.60;99.90
21568;DHT22;10944;42.590;12.630;2023-05-07T08:44:13;21.60;98.80
21568;DHT22;10944;42.590;12.630;2023-05-07T08:46:39;21.70;99.60
21568;DHT22;10944;42.590;12.630;2023-05-07T08:49:07;21.90;98.30
21568;DHT22;10944;42.590;12.630;2023-05-07T08:51:35;21.90;98.60
21568;DHT22;10944;42.590;12.630;2023-05-07T08:54:01;22.00;98.80
21568;DHT22;10944;42.590;12.630;2023-05-07T08:56:27;22.20;97.50
21568;DHT22;10944;42.590;12.630;2023-05-07T08:58:53;22.20;96.60
21568;DHT22;10944;42.590;12.630;2023-05-07T09:01:22;22.20;96.40
21568;DHT22;10944;42.590;12.630;2023-05-07T09:03:49;22.30;96.60
21568;DHT22;10944;42.590;12.630;2023-05-07T09:06:16;22.40;96.60
21568;DHT22;10944;42.590;12.630;2023-05-07T09:08:49;22.40;96.70
21568;DHT22;10944;42.590;12.630;2023-05-07T09:11:16;22.60;96.00
21568;DHT22;10944;42.590;12.630;2023-05-07T09:13:42;22.50;95.70
21568;DHT22;10944;42.590;12.630;2023-05-07T09:16:12;22.50;94.70
21568;DHT22;10944;42.590;12.630;2023-05-07T09:18:44;22.50;95.40
21568;DHT22;10944;42.590;12.630;2023-05-07T09:21:17;22.70;96.50
21568;DHT22;10944;42.590;12.630;2023-05-07T09:23:43;22.80;94.40
21568;DHT22;10944;42.590;12.630;2023-05-07T09:26:09;22.90;94.80
21568;DHT22;10944;42.590;12.630;2023-05-07T09:28:41;23.10;93.70
21568;DHT22;10944;42.590;12.630;2023-05-07T09:31:08;23.10;93.90
21568;DHT22;10944;42.590;12.630;2023-05-07T09:33:34;23.10;94.20
21568;DHT22;10944;42.590;12.630;2023-05-07T09:36:07;23.30;94.90
21568;DHT22;10944;42.590;12.630;2023-05-07T09:38:35;23.30;93.20
21568;DHT22;10944;42.590;12.630;2023-05-07T09:41:05;23.30;92.70
21568;DHT22;10944;42.590;12.630;2023-05-07T09:43:35;23.30;93.20
21568;DHT22;10944;42.590;12.630;2023-05-07T09:46:14;23.30;94.00
21568;DHT22;10944;42.590;12.630;2023-05-07T09:48:43;23.40;92.60
21568;DHT22;10944;42.590;12.630;2023-05-07T09:51:25;23.60;91.10
21568;DHT22;10944;42.590;12.630;2023-05-07T09:53:54;23.60;91.90
21568;DHT22;10944;42.590;12.630;2023-05-07T09:56:20;23.60;92.00
21568;DHT22;10944;42.590;12.630;2023-05-07T09:58:46;23.80;92.50
21568;DHT22;10944;42.590;12.630;2023-05-07T10:01:12;23.70;91.00
21568;DHT22;10944;42.590;12.630;2023-05-07T10:03:43;23.90;92.00
21568;DHT22;10944;42.590;12.630;2023-05-07T10:06:10;24.00;91.60
21568;DHT22;10944;42.590;12.630;2023-05-07T10:08:37;24.10;92.40
21568;DHT22;10944;42.590;12.630;2023-05-07T10:11:05;24.30;91.80
21568;DHT22;10944;42.590;12.630;2023-05-07T10:13:33;24.40;90.80
21568;DHT22;10944;42.590;12.630;2023-05-07T10:16:02;24.40;90.10
21568;DHT22;10944;42.590;12.630;2023-05-07T10:18:33;24.40;90.20
21568;DHT22;10944;42.590;12.630;2023-05-07T10:23:33;24.50;86.90
21568;DHT22;10944;42.590;12.630;2023-05-07T10:26:02;24.50;88.30
21568;DHT22;10944;42.590;12.630;2023-05-07T10:28:31;24.40;86.90
21568;DHT22;10944;42.590;12.630;2023-05-07T10:34:16;24.70;91.60
21568;DHT22;10944;42.590;12.630;2023-05-07T10:36:43;24.70;82.70
21568;DHT22;10944;42.590;12.630;2023-05-07T10:39:10;24.50;84.70
21568;DHT22;10944;42.590;12.630;2023-05-07T10:41:36;24.40;85.20
21568;DHT22;10944;42.590;12.630;2023-05-07T10:44:02;24.30;84.20
21568;DHT22;10944;42.590;12.630;2023-05-07T10:46:28;24.60;88.00
21568;DHT22;10944;42.590;12.630;2023-05-07T10:51:26;24.90;86.60
21568;DHT22;10944;42.590;12.630;2023-05-07T10:56:41;24.80;91.00
21568;DHT22;10944;42.590;12.630;2023-05-07T11:01:57;24.50;88.40
21568;DHT22;10944;42.590;12.630;2023-05-07T11:04:28;24.60;90.00
21568;DHT22;10944;42.590;12.630;2023-05-07T11:15:10;24.60;90.10
21568;DHT22;10944;42.590;12.630;2023-05-07T11:17:57;24.80;90.20
21568;DHT22;10944;42.590;12.630;2023-05-07T11:20:48;24.90;91.00
21568;DHT22;10944;42.590;12.630;2023-05-07T11:26:10;24.90;88.70
21568;DHT22;10944;42.590;12.630;2023-05-07T11:28:43;25.00;87.90
21568;DHT22;10944;42.590;12.630;2023-05-07T11:31:10;25.30;89.10
21568;DHT22;10944;42.590;12.630;2023-05-07T11:33:36;25.20;88.80
21568;DHT22;10944;42.590;12.630;2023-05-07T11:36:03;25.20;88.60
21568;DHT22;10944;42.590;12.630;2023-05-07T11:38:30;25.10;88.90
21568;DHT22;10944;42.590;12.630;2023-05-07T11:40:57;25.20;90.40
21568;DHT22;10944;42.590;12.630;2023-05-07T11:43:24;25.30;88.10
21568;DHT22;10944;42.590;12.630;2023-05-07T11:45:50;25.40;87.70
21568;DHT22;10944;42.590;12.630;2023-05-07T11:48:16;25.30;87.50
21568;DHT22;10944;42.590;12.630;2023-05-07T11:50:52;25.20;88.10
21568;DHT22;10944;42.590;12.630;2023-05-07T11:53:19;25.40;89.70
21568;DHT22;10944;42.590;12.630;2023-05-07T11:55:45;25.40;89.20
21568;DHT22;10944;42.590;12.630;2023-05-07T11:58:12;25.30;89.50
21568;DHT22;10944;42.590;12.630;2023-05-07T12:00:52;25.40;90.70
21568;DHT22;10944;42.590;12.630;2023-05-07T12:03:19;25.70;91.60
21568;DHT22;10944;42.590;12.630;2023-05-07T12:05:45;25.60;90.40
21568;DHT22;10944;42.590;12.630;2023-05-07T12:08:18;25.50;90.50
21568;DHT22;10944;42.590;12.630;2023-05-07T12:10:44;25.70;90.40
21568;DHT22;10944;42.590;12.630;2023-05-07T12:13:15;25.70;90.20
21568;DHT22;10944;42.590;12.630;2023-05-07T12:15:42;25.60;90.20
21568;DHT22;10944;42.590;12.630;2023-05-07T12:18:08;25.70;89.80
21568;DHT22;10944;42.590;12.630;2023-05-07T12:20:35;25.90;89.90
21568;DHT22;10944;42.590;12.630;2023-05-07T12:23:02;25.80;88.90
21568;DHT22;10944;42.590;12.630;2023-05-07T12:25:54;26.00;90.10
21568;DHT22;10944;42.590;12.630;2023-05-07T12:28:20;26.30;90.00
21568;DHT22;10944;42.590;12.630;2023-05-07T12:30:48;26.20;88.40
21568;DHT22;10944;42.590;12.630;2023-05-07T12:33:18;26.20;87.90
21568;DHT22;10944;42.590;12.630;2023-05-07T12:35:47;26.20;88.70
21568;DHT22;10944;42.590;12.630;2023-05-07T12:38:14;26.40;88.80
21568;DHT22;10944;42.590;12.630;2023-05-07T12:40:45;26.40;87.80
21568;DHT22;10944;42.590;12.630;2023-05-07T12:43:17;26.00;86.00
21568;DHT22;10944;42.590;12.630;2023-05-07T12:45:44;26.00;88.70
21568;DHT22;10944;42.590;12.630;2023-05-07T12:48:10;26.10;86.90
21568;DHT22;10944;42.590;12.630;2023-05-07T12:50:36;25.90;87.10
21568;DHT22;10944;42.590;12.630;2023-05-07T12:53:06;26.00;87.50
21568;DHT22;10944;42.590;12.630;2023-05-07T12:55:46;26.20;87.70
21568;DHT22;10944;42.590;12.630;2023-05-07T12:58:30;26.10;88.90
21568;DHT22;10944;42.590;12.630;2023-05-07T13:00:58;26.10;88.60
21568;DHT22;10944;42.590;12.630;2023-05-07T13:03:33;26.30;89.00
21568;DHT22;10944;42.590;12.630;2023-05-07T13:06:03;26.30;88.40
21568;DHT22;10944;42.590;12.630;2023-05-07T13:11:01;26.00;89.20
21568;DHT22;10944;42.590;12.630;2023-05-07T13:13:34;26.10;88.00
21568;DHT22;10944;42.590;12.630;2023-05-07T13:16:04;26.20;88.50
21568;DHT22;10944;42.590;12.630;2023-05-07T13:18:30;26.30;88.00
21568;DHT22;10944;42.590;12.630;2023-05-07T13:20:57;26.30;90.00
21568;DHT22;10944;42.590;12.630;2023-05-07T13:23:23;26.20;88.30
21568;DHT22;10944;42.590;12.630;2023-05-07T13:25:49;26.10;88.30
21568;DHT22;10944;42.590;12.630;2023-05-07T13:28:16;26.10;90.00
21568;DHT22;10944;42.590;12.630;2023-05-07T13:30:42;26.10;89.40
21568;DHT22;10944;42.590;12.630;2023-05-07T13:33:08;26.10;88.40
21568;DHT22;10944;42.590;12.630;2023-05-07T13:35:34;26.10;87.40
21568;DHT22;10944;42.590;12.630;2023-05-07T13:37:59;26.00;87.90
21568;DHT22;10944;42.590;12.630;2023-05-07T13:40:25;26.00;86.00
21568;DHT22;10944;42.590;12.630;2023-05-07T13:42:51;26.00;85.90
21568;DHT22;10944;42.590;12.630;2023-05-07T13:45:18;26.10;87.80
21568;DHT22;10944;42.590;12.630;2023-05-07T13:47:46;26.40;87.10
21568;DHT22;10944;42.590;12.630;2023-05-07T13:50:12;26.40;85.20
21568;DHT22;10944;42.590;12.630;2023-05-07T13:52:42;26.40;85.40
21568;DHT22;10944;42.590;12.630;2023-05-07T13:55:09;26.30;86.70
21568;DHT22;10944;42.590;12.630;2023-05-07T13:57:36;26.30;87.40
21568;DHT22;10944;42.590;12.630;2023-05-07T14:00:03;26.30;87.80
21568;DHT22;10944;42.590;12.630;2023-05-07T14:02:30;26.20;87.30
21568;DHT22;10944;42.590;12.630;2023-05-07T14:04:56;26.20;86.10
21568;DHT22;10944;42.590;12.630;2023-05-07T14:07:22;26.30;84.80
21568;DHT22;10944;42.590;12.630;2023-05-07T14:09:48;26.20;86.20
21568;DHT22;10944;42.590;12.630;2023-05-07T14:12:13;26.20;86.10
21568;DHT22;10944;42.590;12.630;2023-05-07T14:14:39;26.30;84.10
21568;DHT22;10944;42.590;12.630;2023-05-07T14:17:05;26.30;84.20
21568;DHT22;10944;42.590;12.630;2023-05-07T14:19:30;26.30;83.60
21568;DHT22;10944;42.590;12.630;2023-05-07T14:21:56;26.40;85.60
21568;DHT22;10944;42.590;12.630;2023-05-07T14:24:22;26.50;86.30
21568;DHT22;10944;42.590;12.630;2023-05-07T14:26:47;26.40;89.70
21568;DHT22;10944;42.590;12.630;2023-05-07T14:29:13;26.50;87.10
21568;DHT22;10944;42.590;12.630;2023-05-07T14:31:41;26.30;85.80
21568;DHT22;10944;42.590;12.630;2023-05-07T14:34:06;26.20;87.40
21568;DHT22;10944;42.590;12.630;2023-05-07T14:36:32;26.20;88.00
21568;DHT22;10944;42.590;12.630;2023-05-07T14:38:58;26.20;86.30
21568;DHT22;10944;42.590;12.630;2023-05-07T14:41:24;26.10;87.90
21568;DHT22;10944;42.590;12.630;2023-05-07T14:43:50;26.10;88.50
21568;DHT22;10944;42.590;12.630;2023-05-07T14:46:17;26.10;87.50
21568;DHT22;10944;42.590;12.630;2023-05-07T14:48:44;26.10;90.30
21568;DHT22;10944;42.590;12.630;2023-05-07T14:51:10;26.10;90.00
21568;DHT22;10944;42.590;12.630;2023-05-07T14:53:36;26.20;88.80
21568;DHT22;10944;42.590;12.630;2023-05-07T14:56:02;26.10;90.00
21568;DHT22;10944;42.590;12.630;2023-05-07T14:58:28;26.10;88.40
21568;DHT22;10944;42.590;12.630;2023-05-07T15:00:54;26.00;88.70
21568;DHT22;10944;42.590;12.630;2023-05-07T15:03:20;26.00;90.20
21568;DHT22;10944;42.590;12.630;2023-05-07T15:05:47;25.90;89.80
21568;DHT22;10944;42.590;12.630;2023-05-07T15:08:12;25.90;90.70
21568;DHT22;10944;42.590;12.630;2023-05-07T15:10:38;25.90;91.10
21568;DHT22;10944;42.590;12.630;2023-05-07T15:13:10;25.90;91.70
21568;DHT22;10944;42.590;12.630;2023-05-07T15:15:36;25.90;90.90
21568;DHT22;10944;42.590;12.630;2023-05-07T15:18:02;25.90;91.80
21568;DHT22;10944;42.590;12.630;2023-05-07T15:20:28;25.80;91.10
21568;DHT22;10944;42.590;12.630;2023-05-07T15:22:54;25.70;91.60
21568;DHT22;10944;42.590;12.630;2023-05-07T15:25:20;25.60;91.80
21568;DHT22;10944;42.590;12.630;2023-05-07T15:27:46;25.60;91.70
21568;DHT22;10944;42.590;12.630;2023-05-07T15:30:12;25.60;91.90
21568;DHT22;10944;42.590;12.630;2023-05-07T15:32:40;25.60;92.30
21568;DHT22;10944;42.590;12.630;2023-05-07T15:35:06;25.40;92.80
21568;DHT22;10944;42.590;12.630;2023-05-07T15:37:32;25.50;93.10
21568;DHT22;10944;42.590;12.630;2023-05-07T15:39:58;25.50;93.20